Time;durP1;ratioP1;P1;durP2;ratioP2;P2;SDS_P1;SDS_P2;PMS_P1;PMS_P2;Temp;Humidity;BMP_temperature;BMP_pressure;BME280_temperature;BME280_humidity;BME280_pressure;Samples;Min_cycle;Max_cycle;Signal;HPM_P1;HPM_P2
2022/09/10 00:00:35;;;;;;;4.32;1.80;;;13.30;99.90;;;;;;5072489;28;20025;-49
2022/09/10 00:03:01;;;;;;;2.08;1.77;;;13.30;99.90;;;;;;5072913;28;20050;-52
2022/09/10 00:05:28;;;;;;;5.93;2.08;;;13.20;99.90;;;;;;5072924;28;20099;-51
2022/09/10 00:07:53;;;;;;;2.95;1.65;;;13.10;99.90;;;;;;5072744;28;20040;-51
2022/09/10 00:10:19;;;;;;;2.63;1.63;;;13.10;99.90;;;;;;5073037;28;20032;-53
2022/09/10 00:12:47;;;;;;;6.70;2.38;;;13.00;99.90;;;;;;5072737;28;20021;-49
2022/09/10 00:15:16;;;;;;;2.38;1.80;;;13.00;99.90;;;;;;5072917;28;20511;-50
2022/09/10 00:17:42;;;;;;;2.00;1.70;;;12.90;99.90;;;;;;5072727;28;20055;-53
2022/09/10 00:20:09;;;;;;;5.20;2.25;;;12.90;99.90;;;;;;5072766;28;20036;-50
2022/09/10 00:22:35;;;;;;;2.10;1.88;;;12.80;99.90;;;;;;5073247;28;20050;-49
2022/09/10 00:25:01;;;;;;;4.30;1.80;;;12.80;99.90;;;;;;5092883;28;20032;-51
2022/09/10 00:27:26;;;;;;;2.22;1.88;;;12.70;99.90;;;;;;5092139;28;20028;-52
2022/09/10 00:29:53;;;;;;;3.95;2.47;;;12.70;99.90;;;;;;5092780;28;20024;-49
2022/09/10 00:32:23;;;;;;;4.18;1.92;;;12.80;99.90;;;;;;5092927;28;20031;-51
2022/09/10 00:34:48;;;;;;;6.03;1.80;;;12.70;99.90;;;;;;5092603;28;20020;-50
2022/09/10 00:37:15;;;;;;;3.00;1.98;;;12.70;99.90;;;;;;5092404;28;20078;-50
2022/09/10 00:39:40;;;;;;;5.18;1.92;;;12.70;99.90;;;;;;5092532;28;20110;-50
2022/09/10 00:42:11;;;;;;;5.00;1.92;;;12.70;99.90;;;;;;5092655;28;20108;-50
2022/09/10 00:44:38;;;;;;;9.15;1.77;;;12.70;99.90;;;;;;5092419;28;20096;-50
2022/09/10 00:47:25;;;;;;;2.45;1.88;;;12.60;99.90;;;;;;5092303;28;20051;-49
2022/09/10 00:49:59;;;;;;;2.80;1.38;;;12.50;99.90;;;;;;5091986;28;20036;-50
2022/09/10 00:52:28;;;;;;;3.22;2.10;;;12.50;99.90;;;;;;5088311;28;20067;-49
2022/09/10 00:54:54;;;;;;;2.22;1.90;;;12.50;99.90;;;;;;5072064;28;20016;-50
2022/09/10 00:57:22;;;;;;;3.60;1.83;;;12.40;99.90;;;;;;5070777;28;20483;-50
2022/09/10 01:00:01;;;;;;;4.53;1.70;;;12.40;99.90;;;;;;5072101;28;20067;-50
2022/09/10 01:02:27;;;;;;;2.33;1.80;;;12.40;99.90;;;;;;5072930;28;20022;-50
2022/09/10 01:04:55;;;;;;;4.70;1.80;;;12.30;99.90;;;;;;5071883;28;20032;-49
2022/09/10 01:07:22;;;;;;;5.05;2.00;;;12.30;99.90;;;;;;5071600;28;20044;-49
2022/09/10 01:09:48;;;;;;;4.60;2.00;;;12.30;99.90;;;;;;5071759;28;20016;-50
2022/09/10 01:12:21;;;;;;;2.13;1.92;;;12.30;99.90;;;;;;5071879;28;20012;-50
2022/09/10 01:15:16;;;;;;;4.18;2.35;;;12.30;99.90;;;;;;5070502;28;20027;-51
2022/09/10 01:18:17;;;;;;;5.22;2.22;;;12.30;99.90;;;;;;5090031;28;20042;-50
2022/09/10 01:21:01;;;;;;;2.10;1.88;;;12.30;99.90;;;;;;5091791;28;20062;-51
2022/09/10 01:23:40;;;;;;;;;;;12.40;99.90;;;;;;5092386;28;20024;-51
2022/09/10 01:26:27;;;;;;;1.77;1.67;;;12.50;99.90;;;;;;5091814;28;20348;-51
2022/09/10 01:29:08;;;;;;;1.75;1.60;;;12.60;99.90;;;;;;5091984;28;20028;-49
2022/09/10 01:31:53;;;;;;;9.45;1.50;;;12.70;99.90;;;;;;5080464;28;20021;-49
2022/09/10 01:34:28;;;;;;;2.85;1.83;;;12.80;99.90;;;;;;5071637;28;20103;-49
2022/09/10 01:37:00;;;;;;;2.35;1.50;;;12.90;99.90;;;;;;5071639;28;20426;-49
2022/09/10 01:39:26;;;;;;;3.30;1.58;;;13.00;99.90;;;;;;5070476;28;20027;-50
2022/09/10 01:41:55;;;;;;;1.30;1.30;;;13.00;99.90;;;;;;5070270;28;20033;-49
2022/09/10 01:44:54;;;;;;;1.50;1.40;;;13.10;99.90;;;;;;5071917;28;20103;-51
2022/09/10 01:47:30;;;;;;;3.35;1.48;;;13.00;99.90;;;;;;5026789;28;20392;-49
2022/09/10 01:50:13;;;;;;;7.43;1.60;;;13.00;99.90;;;;;;5072587;28;20032;-49
2022/09/10 01:53:23;;;;;;;2.55;1.88;;;13.00;99.90;;;;;;5071138;28;20064;-49
2022/09/10 01:55:58;;;;;;;1.92;1.40;;;13.00;99.90;;;;;;5055099;28;20500;-49
2022/09/10 01:58:29;;;;;;;3.00;1.67;;;13.00;99.90;;;;;;5071143;28;20062;-49
2022/09/10 02:01:10;;;;;;;1.55;1.45;;;12.90;99.90;;;;;;5071254;28;20040;-49
2022/09/10 02:03:38;;;;;;;1.67;1.52;;;12.80;99.90;;;;;;5071126;28;20368;-50
2022/09/10 02:06:08;;;;;;;1.60;1.50;;;12.80;99.90;;;;;;5091464;28;20047;-49
2022/09/10 02:08:38;;;;;;;2.85;1.65;;;12.90;99.90;;;;;;5091249;28;20048;-49
2022/09/10 02:11:08;;;;;;;2.10;1.58;;;13.00;99.90;;;;;;5091403;28;20044;-50
2022/09/10 02:13:34;;;;;;;1.95;1.85;;;13.00;99.90;;;;;;5091280;28;20087;-49
2022/09/10 02:16:02;;;;;;;1.70;1.60;;;13.00;99.90;;;;;;5091384;28;20430;-49
2022/09/10 02:18:30;;;;;;;4.63;1.80;;;13.10;99.90;;;;;;5090921;28;20073;-49
2022/09/10 02:20:58;;;;;;;7.53;1.67;;;13.10;99.90;;;;;;5091268;28;20028;-50
2022/09/10 02:23:30;;;;;;;2.33;1.80;;;13.10;99.90;;;;;;5091297;28;20077;-50
2022/09/10 02:25:57;;;;;;;5.20;1.38;;;13.00;99.90;;;;;;5091199;28;20042;-50
2022/09/10 02:28:22;;;;;;;2.75;1.50;;;13.00;99.90;;;;;;5091240;28;20020;-51
2022/09/10 02:30:48;;;;;;;6.88;1.50;;;13.00;99.90;;;;;;5091225;28;20466;-49
2022/09/10 02:33:17;;;;;;;2.10;1.50;;;12.90;99.90;;;;;;5089658;28;20024;-49
2022/09/10 02:35:44;;;;;;;1.88;1.38;;;12.90;99.90;;;;;;5070917;28;20662;-49
2022/09/10 02:38:09;;;;;;;1.73;1.63;;;12.80;99.90;;;;;;5070837;28;20021;-49
2022/09/10 02:40:35;;;;;;;1.83;1.67;;;12.70;99.90;;;;;;5070555;28;20047;-49
2022/09/10 02:43:01;;;;;;;7.45;1.95;;;12.70;99.90;;;;;;5071036;28;20025;-50
2022/09/10 02:45:26;;;;;;;2.75;1.35;;;12.70;99.90;;;;;;5070755;28;20070;-51
2022/09/10 02:47:53;;;;;;;6.35;1.80;;;12.60;99.90;;;;;;5070890;28;20523;-50
2022/09/10 02:50:19;;;;;;;3.58;1.77;;;12.60;99.90;;;;;;5072103;28;20061;-50
2022/09/10 02:52:45;;;;;;;2.80;1.55;;;12.50;99.90;;;;;;5074359;28;20823;-50
2022/09/10 02:55:12;;;;;;;3.05;1.65;;;12.40;99.90;;;;;;5074466;28;20665;-49
2022/09/10 02:57:38;;;;;;;3.35;1.98;;;12.30;99.90;;;;;;5074247;28;20069;-50
2022/09/10 03:00:06;;;;;;;1.90;1.80;;;12.30;99.90;;;;;;5074335;28;20024;-49
2022/09/10 03:02:32;;;;;;;9.00;2.55;;;12.20;99.90;;;;;;5073929;28;20068;-49
2022/09/10 03:04:58;;;;;;;2.60;2.28;;;12.10;99.90;;;;;;5089636;28;20087;-50
2022/09/10 03:07:23;;;;;;;2.67;2.00;;;12.00;99.90;;;;;;5093826;28;20044;-49
2022/09/10 03:09:49;;;;;;;2.88;2.67;;;11.90;99.90;;;;;;5093975;28;20158;-50
2022/09/10 03:12:15;;;;;;;1.98;1.88;;;11.80;99.90;;;;;;5094528;28;20066;-49
2022/09/10 03:14:41;;;;;;;3.47;1.80;;;11.70;99.90;;;;;;5093703;28;20873;-49
2022/09/10 03:17:08;;;;;;;2.85;1.90;;;11.80;99.90;;;;;;5094345;28;20012;-50
2022/09/10 03:19:34;;;;;;;3.13;1.98;;;11.70;99.90;;;;;;5094121;28;20085;-50
2022/09/10 03:22:00;;;;;;;2.50;2.00;;;11.60;99.90;;;;;;5094344;28;20494;-50
2022/09/10 03:24:25;;;;;;;3.38;2.10;;;11.60;99.90;;;;;;5092650;28;20109;-49
2022/09/10 03:26:51;;;;;;;2.20;2.00;;;11.50;99.90;;;;;;5093974;28;20039;-50
2022/09/10 03:29:17;;;;;;;5.57;2.50;;;11.50;99.90;;;;;;5080761;28;20036;-51
2022/09/10 03:31:45;;;;;;;4.78;2.35;;;11.40;99.90;;;;;;5073756;28;20485;-51
2022/09/10 03:34:11;;;;;;;2.15;1.98;;;11.40;99.90;;;;;;5073786;28;20107;-50
2022/09/10 03:36:37;;;;;;;3.92;2.53;;;11.30;99.90;;;;;;5073559;28;20040;-49
2022/09/10 03:39:03;;;;;;;3.42;1.90;;;11.30;99.90;;;;;;5073634;28;20016;-49
2022/09/10 03:41:30;;;;;;;4.07;2.30;;;11.30;99.90;;;;;;5072024;28;20036;-49
2022/09/10 03:43:56;;;;;;;5.97;2.17;;;11.20;99.90;;;;;;5075801;28;20075;-50
2022/09/10 03:46:23;;;;;;;4.18;2.15;;;11.20;99.90;;;;;;5073331;28;20056;-50
2022/09/10 03:48:49;;;;;;;2.95;2.20;;;11.10;99.90;;;;;;5073467;28;20380;-50
2022/09/10 03:51:15;;;;;;;6.03;1.75;;;11.20;99.90;;;;;;5073306;28;20037;-49
2022/09/10 03:53:42;;;;;;;4.00;2.13;;;11.30;99.90;;;;;;5073174;28;20348;-51
2022/09/10 03:56:08;;;;;;;2.38;2.15;;;11.30;99.90;;;;;;5073226;28;20035;-49
2022/09/10 03:58:34;;;;;;;3.00;1.88;;;11.20;99.90;;;;;;5078834;28;20036;-51
2022/09/10 04:01:01;;;;;;;2.67;2.00;;;11.20;99.90;;;;;;5093154;28;20061;-49
2022/09/10 04:03:29;;;;;;;5.25;1.75;;;11.20;99.90;;;;;;5091114;28;20115;-50
2022/09/10 04:05:56;;;;;;;2.58;2.10;;;11.10;99.90;;;;;;5093085;28;20070;-50
2022/09/10 04:08:22;;;;;;;3.60;1.85;;;11.10;99.90;;;;;;5091374;28;20040;-49
2022/09/10 04:10:47;;;;;;;1.52;1.42;;;10.90;99.90;;;;;;5091191;28;20047;-50
2022/09/10 04:13:13;;;;;;;2.88;1.83;;;11.00;99.90;;;;;;5093270;28;20067;-52
2022/09/10 04:15:40;;;;;;;6.25;1.70;;;10.90;99.90;;;;;;5093000;28;20463;-50
2022/09/10 04:18:06;;;;;;;1.83;1.70;;;10.90;99.90;;;;;;5093091;28;20024;-50
2022/09/10 04:20:37;;;;;;;6.22;2.30;;;10.80;99.90;;;;;;5092996;28;20430;-50
2022/09/10 04:23:04;;;;;;;1.75;1.65;;;10.70;99.90;;;;;;5093070;28;20016;-50
2022/09/10 04:25:29;;;;;;;9.05;2.22;;;10.60;99.90;;;;;;5082535;28;20494;-49
2022/09/10 04:27:55;;;;;;;1.48;1.40;;;10.60;99.90;;;;;;5072763;28;20029;-49
2022/09/10 04:30:22;;;;;;;3.20;1.90;;;10.50;99.90;;;;;;5072710;28;20036;-50
2022/09/10 04:32:48;;;;;;;3.80;1.58;;;10.50;99.90;;;;;;5072450;28;20017;-50
2022/09/10 04:35:14;;;;;;;4.70;1.80;;;10.40;99.90;;;;;;5072261;28;20460;-49
2022/09/10 04:37:41;;;;;;;1.88;1.77;;;10.40;99.90;;;;;;5071858;28;20170;-49
2022/09/10 04:40:08;;;;;;;5.75;1.98;;;10.40;99.90;;;;;;5080824;28;20032;-51
2022/09/10 04:42:34;;;;;;;2.25;1.70;;;10.40;99.90;;;;;;5092336;28;20024;-49
2022/09/10 04:44:59;;;;;;;2.25;1.85;;;10.40;99.90;;;;;;5092459;28;20106;-51
2022/09/10 04:47:25;;;;;;;7.03;2.78;;;10.40;99.90;;;;;;5092548;28;20459;-51
2022/09/10 04:49:51;;;;;;;4.28;2.38;;;10.50;99.90;;;;;;5092327;28;20479;-50
2022/09/10 04:52:16;;;;;;;8.73;3.08;;;10.60;99.90;;;;;;5092417;28;20047;-49
2022/09/10 04:54:42;;;;;;;6.70;2.70;;;10.60;99.90;;;;;;5091820;28;20031;-50
2022/09/10 04:57:08;;;;;;;4.32;3.17;;;10.70;99.90;;;;;;5092366;28;20035;-51
2022/09/10 04:59:33;;;;;;;3.70;2.50;;;10.80;99.90;;;;;;5091877;28;20031;-50
2022/09/10 05:02:00;;;;;;;6.95;2.20;;;10.90;99.90;;;;;;5092182;28;20031;-49
2022/09/10 05:04:25;;;;;;;2.70;2.03;;;11.00;99.90;;;;;;5091854;28;20032;-49
2022/09/10 05:06:52;;;;;;;3.92;2.38;;;11.10;99.90;;;;;;5091614;28;20081;-50
2022/09/10 05:09:19;;;;;;;3.30;3.00;;;11.10;99.90;;;;;;5085459;28;20028;-49
2022/09/10 05:11:51;;;;;;;2.92;2.40;;;11.20;99.90;;;;;;5071681;28;20066;-49
2022/09/10 05:14:17;;;;;;;4.18;1.83;;;11.40;99.90;;;;;;5071574;28;20046;-50
2022/09/10 05:16:43;;;;;;;3.75;2.10;;;11.50;99.90;;;;;;5071776;28;20036;-49
2022/09/10 05:19:16;;;;;;;9.07;1.90;;;11.70;99.90;;;;;;5071800;28;20077;-50
2022/09/10 05:21:42;;;;;;;2.67;2.05;;;11.80;99.90;;;;;;5071582;28;20086;-49
2022/09/10 05:24:08;;;;;;;1.70;1.60;;;11.90;99.90;;;;;;5071679;28;20028;-49
2022/09/10 05:26:33;;;;;;;2.35;1.88;;;12.10;99.90;;;;;;5071483;28;20439;-51
2022/09/10 05:28:59;;;;;;;3.15;1.48;;;12.30;99.90;;;;;;5071666;28;20024;-50
2022/09/10 05:31:26;;;;;;;3.67;1.45;;;12.40;99.90;;;;;;5071503;28;20019;-50
2022/09/10 05:33:53;;;;;;;1.65;1.20;;;12.50;99.90;;;;;;5071568;28;20422;-52
2022/09/10 05:36:20;;;;;;;1.40;1.30;;;12.60;99.90;;;;;;5071437;28;20111;-51
2022/09/10 05:38:45;;;;;;;5.13;2.17;;;12.70;99.90;;;;;;5080463;28;20031;-49
2022/09/10 05:41:12;;;;;;;1.55;1.45;;;12.80;99.90;;;;;;5091461;28;20032;-51
2022/09/10 05:43:37;;;;;;;5.28;1.77;;;12.80;99.90;;;;;;5091681;28;20400;-50
2022/09/10 05:46:04;;;;;;;2.85;1.80;;;13.00;99.90;;;;;;5091249;28;20035;-49
2022/09/10 05:48:29;;;;;;;1.75;1.50;;;13.00;99.90;;;;;;5091413;28;20122;-50
2022/09/10 05:50:56;;;;;;;1.80;1.52;;;13.10;99.90;;;;;;5091516;28;20450;-50
2022/09/10 05:53:21;;;;;;;9.20;1.80;;;13.20;99.90;;;;;;5091360;28;20032;-50
2022/09/10 05:55:48;;;;;;;7.60;2.08;;;13.20;99.90;;;;;;5091215;28;20110;-50
2022/09/10 05:58:15;;;;;;;1.98;1.38;;;13.30;99.90;;;;;;5091643;28;20015;-54
2022/09/10 06:00:42;;;;;;;2.15;1.95;;;13.30;99.90;;;;;;5091382;28;20108;-49
2022/09/10 06:03:09;;;;;;;9.30;2.13;;;13.40;99.90;;;;;;5091462;28;20046;-49
2022/09/10 06:05:34;;;;;;;3.10;1.88;;;13.50;99.90;;;;;;5091089;28;20073;-50
2022/09/10 06:08:00;;;;;;;7.10;2.30;;;13.60;99.90;;;;;;5088262;28;21615;-50
2022/09/10 06:10:26;;;;;;;3.50;2.13;;;13.70;99.90;;;;;;5071060;28;20051;-48
2022/09/10 06:12:52;;;;;;;1.70;1.25;;;13.80;99.90;;;;;;5069871;28;20056;-51
2022/09/10 06:15:20;;;;;;;3.45;1.52;;;13.80;99.90;;;;;;5071075;28;20025;-49
2022/09/10 06:17:47;;;;;;;3.72;1.20;;;13.90;99.90;;;;;;5070962;28;20143;-50
2022/09/10 06:20:12;;;;;;;1.35;1.25;;;14.00;99.90;;;;;;5070030;28;20016;-50
2022/09/10 06:22:39;;;;;;;7.82;1.20;;;14.00;99.90;;;;;;5070768;28;20119;-48
2022/09/10 06:25:05;;;;;;;1.98;1.20;;;14.10;99.90;;;;;;5072007;28;20422;-51
2022/09/10 06:27:31;;;;;;;3.10;1.40;;;14.10;99.90;;;;;;5073554;28;20033;-49
2022/09/10 06:29:57;;;;;;;2.47;1.48;;;14.00;99.90;;;;;;5074416;28;20028;-50
2022/09/10 06:32:23;;;;;;;1.27;1.17;;;14.00;99.90;;;;;;5073930;28;20486;-49
2022/09/10 06:34:49;;;;;;;2.22;1.30;;;13.90;99.90;;;;;;5073272;28;20091;-49
2022/09/10 06:37:15;;;;;;;1.50;1.40;;;14.00;99.90;;;;;;5073517;28;20103;-49
2022/09/10 06:39:41;;;;;;;3.05;1.35;;;14.10;99.90;;;;;;5093567;28;20276;-51
2022/09/10 06:42:07;;;;;;;2.92;1.45;;;14.10;99.90;;;;;;5093554;28;20123;-51
2022/09/10 06:44:33;;;;;;;4.22;1.33;;;14.10;99.90;;;;;;5093603;28;20059;-51
2022/09/10 06:47:01;;;;;;;4.40;1.27;;;14.20;99.90;;;;;;5093310;28;20047;-49
2022/09/10 06:49:28;;;;;;;4.82;1.42;;;14.20;99.90;;;;;;5093492;28;20020;-50
2022/09/10 06:51:54;;;;;;;1.60;1.33;;;14.30;99.90;;;;;;5092911;28;20063;-51
2022/09/10 06:54:19;;;;;;;3.95;1.50;;;14.50;99.90;;;;;;5093200;28;20053;-48
2022/09/10 06:56:47;;;;;;;2.65;1.42;;;14.60;99.90;;;;;;5093030;28;20345;-50
2022/09/10 06:59:13;;;;;;;1.13;1.02;;;14.80;99.90;;;;;;5093266;28;20490;-50
2022/09/10 07:01:40;;;;;;;1.35;1.25;;;15.00;99.90;;;;;;5092992;28;20020;-49
2022/09/10 07:04:07;;;;;;;1.50;1.23;;;15.20;99.90;;;;;;5093321;28;20070;-49
2022/09/10 07:06:34;;;;;;;6.63;1.08;;;15.40;99.90;;;;;;5093047;28;20084;-51
2022/09/10 07:09:01;;;;;;;2.05;1.20;;;15.60;99.90;;;;;;5075991;28;20117;-50
2022/09/10 07:11:29;;;;;;;1.15;0.93;;;15.80;99.90;;;;;;5092512;28;20536;-49
2022/09/10 07:13:55;;;;;;;1.25;1.15;;;16.00;99.90;;;;;;5092953;28;20031;-50
2022/09/10 07:16:22;;;;;;;1.73;0.88;;;16.20;99.90;;;;;;5092966;28;20031;-50
2022/09/10 07:18:53;;;;;;;3.60;1.00;;;16.40;99.90;;;;;;5092914;28;20031;-49
2022/09/10 07:21:20;;;;;;;4.68;1.10;;;16.50;99.90;;;;;;5092542;28;20020;-48
2022/09/10 07:23:50;;;;;;;5.00;1.02;;;16.50;99.90;;;;;;5083957;28;20036;-48
2022/09/10 07:26:18;;;;;;;5.57;1.17;;;16.50;99.90;;;;;;5072595;28;20025;-49
2022/09/10 07:28:44;;;;;;;2.05;1.10;;;16.50;99.90;;;;;;5072192;28;20016;-48
2022/09/10 07:31:20;;;;;;;1.75;1.20;;;16.60;99.90;;;;;;5072432;28;20518;-49
2022/09/10 07:33:46;;;;;;;2.53;1.27;;;16.70;99.90;;;;;;5072526;28;20523;-50
2022/09/10 07:36:12;;;;;;;1.25;1.13;;;16.70;99.90;;;;;;5071529;28;20020;-50
2022/09/10 07:38:40;;;;;;;1.75;1.40;;;16.80;99.90;;;;;;5072573;28;20110;-50
2022/09/10 07:41:08;;;;;;;1.55;1.40;;;16.80;99.90;;;;;;5073438;28;20030;-50
2022/09/10 07:43:34;;;;;;;4.10;1.10;;;16.80;99.90;;;;;;5073572;28;20129;-49
2022/09/10 07:45:59;;;;;;;2.25;1.08;;;16.80;99.90;;;;;;5073533;28;20475;-50
2022/09/10 07:48:26;;;;;;;3.42;1.20;;;17.00;99.90;;;;;;5071213;28;20451;-50
2022/09/10 07:50:52;;;;;;;2.20;0.90;;;17.20;99.90;;;;;;5071639;28;20369;-51
2022/09/10 07:53:18;;;;;;;6.60;1.90;;;17.20;99.90;;;;;;5072006;28;20028;-52
2022/09/10 07:55:44;;;;;;;3.60;0.95;;;17.00;99.90;;;;;;5071940;28;20029;-50
2022/09/10 07:58:09;;;;;;;3.25;1.25;;;17.20;99.90;;;;;;5071946;28;20357;-49
2022/09/10 08:00:35;;;;;;;1.45;1.20;;;17.20;99.90;;;;;;5071616;28;20415;-49
2022/09/10 08:03:02;;;;;;;3.50;1.20;;;17.30;99.90;;;;;;5071679;28;20463;-50
2022/09/10 08:05:27;;;;;;;6.00;1.30;;;17.00;99.90;;;;;;5070167;28;20025;-50
2022/09/10 08:07:53;;;;;;;3.65;1.42;;;17.10;99.90;;;;;;5071209;28;20052;-50
2022/09/10 08:10:19;;;;;;;4.15;1.30;;;16.90;99.90;;;;;;5071734;28;20028;-49
2022/09/10 08:12:44;;;;;;;2.70;1.30;;;16.90;99.90;;;;;;5071666;28;20023;-51
2022/09/10 08:15:10;;;;;;;5.07;1.30;;;16.80;99.90;;;;;;5071055;28;20029;-50
2022/09/10 08:17:37;;;;;;;0.80;0.80;;;16.60;99.90;;;;;;5071984;28;20139;-53
2022/09/10 08:20:06;;;;;;;3.50;0.80;;;16.60;99.90;;;;;;5071211;28;20029;-51
2022/09/10 08:22:33;;;;;;;3.65;1.00;;;16.50;99.90;;;;;;5072194;28;20399;-50
2022/09/10 08:24:59;;;;;;;0.65;0.65;;;16.30;99.90;;;;;;5072524;28;20032;-50
2022/09/10 08:27:25;;;;;;;3.80;1.33;;;16.10;99.90;;;;;;5072504;28;20032;-50
2022/09/10 08:29:51;;;;;;;3.15;0.80;;;15.90;99.90;;;;;;5072743;28;20036;-49
2022/09/10 08:32:16;;;;;;;3.28;1.10;;;15.70;99.90;;;;;;5071744;28;20491;-49
2022/09/10 08:34:42;;;;;;;5.07;1.15;;;15.60;99.90;;;;;;5070805;28;20109;-50
2022/09/10 08:37:08;;;;;;;5.97;1.15;;;15.30;99.90;;;;;;5071118;28;20135;-53
2022/09/10 08:39:33;;;;;;;4.03;1.20;;;15.20;99.90;;;;;;5070896;28;20032;-50
2022/09/10 08:42:05;;;;;;;4.28;1.13;;;15.00;99.90;;;;;;5071123;28;20133;-51
2022/09/10 08:44:35;;;;;;;8.50;1.38;;;14.70;99.90;;;;;;5070913;28;20123;-50
2022/09/10 08:47:20;;;;;;;0.98;0.82;;;14.50;99.90;;;;;;5071268;28;20105;-52
2022/09/10 08:50:10;;;;;;;3.17;1.23;;;14.30;99.90;;;;;;5072080;28;20353;-49
2022/09/10 08:52:54;;;;;;;2.30;1.10;;;14.30;99.90;;;;;;5071896;28;20025;-51
2022/09/10 08:55:20;;;;;;;1.33;1.02;;;14.20;99.90;;;;;;5072095;28;20027;-49
2022/09/10 08:58:03;;;;;;;1.15;0.80;;;14.20;99.90;;;;;;5072000;28;20028;-50
2022/09/10 09:00:37;;;;;;;1.95;1.08;;;14.30;99.90;;;;;;5071924;28;20376;-50
2022/09/10 09:03:23;;;;;;;2.58;1.10;;;14.50;99.90;;;;;;5071516;28;20025;-53
2022/09/10 09:05:58;;;;;;;2.08;1.10;;;14.70;99.90;;;;;;5071503;28;20090;-51
2022/09/10 09:08:28;;;;;;;3.38;1.20;;;14.90;99.90;;;;;;5071513;28;20079;-49
2022/09/10 09:10:54;;;;;;;0.98;0.88;;;14.90;99.90;;;;;;5071456;28;20064;-51
2022/09/10 09:13:39;;;;;;;4.45;1.17;;;15.10;99.90;;;;;;5071785;28;20053;-52
2022/09/10 09:16:20;;;;;;;1.10;0.98;;;15.30;99.90;;;;;;5071948;28;20110;-51
2022/09/10 09:19:12;;;;;;;4.40;0.93;;;15.50;99.90;;;;;;5051708;28;20040;-50
2022/09/10 09:21:53;;;;;;;2.15;0.95;;;15.50;99.90;;;;;;5050079;28;20390;-51
2022/09/10 09:24:24;;;;;;;1.17;0.90;;;15.70;99.90;;;;;;5051739;28;20044;-53
2022/09/10 09:26:59;;;;;;;3.90;0.88;;;15.80;99.90;;;;;;5051661;28;20108;-51
2022/09/10 09:29:31;;;;;;;0.88;0.88;;;16.30;99.90;;;;;;5051458;28;20025;-50
2022/09/10 09:32:02;;;;;;;0.70;0.70;;;16.80;99.90;;;;;;5058416;28;20048;-49
2022/09/10 09:34:42;;;;;;;2.42;0.88;;;16.80;99.90;;;;;;5091397;28;20028;-49
2022/09/10 09:37:20;;;;;;;3.10;2.88;;;16.80;99.90;;;;;;5078685;28;20078;-51
2022/09/10 09:40:05;;;;;;;3.67;3.40;;;16.80;99.90;;;;;;5071292;28;20032;-53
2022/09/10 09:42:48;;;;;;;1.85;1.67;;;17.00;99.90;;;;;;5071101;28;20032;-52
2022/09/10 09:45:24;;;;;;;;;;;17.70;99.90;;;;;;5051813;28;20108;-51
2022/09/10 09:47:50;;;;;;;0.93;0.80;;;17.70;99.90;;;;;;5062655;28;19908;-51
2022/09/10 09:50:17;;;;;;;2.20;0.95;;;18.10;99.90;;;;;;5091191;28;20024;-50
2022/09/10 09:52:44;;;;;;;0.77;0.77;;;17.70;99.90;;;;;;5090820;28;21001;-49
2022/09/10 09:55:29;;;;;;;1.05;0.80;;;17.80;99.90;;;;;;5090685;28;20063;-50
2022/09/10 09:58:20;;;;;;;2.00;0.77;;;18.30;99.90;;;;;;5081412;28;20032;-50
2022/09/10 10:01:02;;;;;;;0.63;0.60;;;18.50;99.90;;;;;;5073303;28;20033;-49
2022/09/10 10:03:30;;;;;;;0.80;0.70;;;18.60;99.90;;;;;;5091787;28;20020;-51
2022/09/10 10:06:07;;;;;;;0.70;0.70;;;18.80;99.90;;;;;;5078730;28;20036;-50
2022/09/10 10:08:43;;;;;;;0.63;0.50;;;19.00;99.90;;;;;;5095034;28;20044;-50
2022/09/10 10:11:13;;;;;;;1.40;0.70;;;18.70;99.90;;;;;;5095534;28;20012;-49
2022/09/10 10:13:44;;;;;;;3.58;0.60;;;18.10;99.90;;;;;;5095029;28;20105;-51
2022/09/10 10:16:34;;;;;;;7.97;0.80;;;18.40;99.90;;;;;;5095022;28;20386;-49
2022/09/10 10:19:00;;;;;;;0.95;0.60;;;18.30;99.90;;;;;;5094389;28;20027;-50
2022/09/10 10:21:31;;;;;;;2.53;0.70;;;18.30;99.90;;;;;;5093052;28;20024;-51
2022/09/10 10:23:57;;;;;;;2.20;0.90;;;18.50;99.90;;;;;;5092791;28;20021;-51
2022/09/10 10:26:30;;;;;;;0.70;0.70;;;18.80;99.90;;;;;;5074584;28;20025;-50
2022/09/10 10:29:17;;;;;;;0.80;0.80;;;18.40;99.90;;;;;;5076694;28;20491;-49
2022/09/10 10:31:46;;;;;;;0.60;0.60;;;18.40;99.90;;;;;;5092800;28;20028;-49
2022/09/10 10:34:14;;;;;;;0.70;0.70;;;18.40;99.90;;;;;;5079665;28;20043;-52
2022/09/10 10:37:00;;;;;;;1.95;0.88;;;17.80;99.90;;;;;;5093209;28;20023;-50
2022/09/10 10:39:37;;;;;;;1.15;0.80;;;17.60;99.90;;;;;;5094533;28;20024;-50
2022/09/10 10:42:06;;;;;;;0.70;0.70;;;17.80;99.90;;;;;;5095057;28;20090;-52
2022/09/10 10:44:57;;;;;;;1.30;0.80;;;17.70;99.90;;;;;;5094438;28;20032;-50
2022/09/10 10:47:29;;;;;;;0.80;0.80;;;17.60;99.90;;;;;;5080806;28;20033;-49
2022/09/10 10:49:58;;;;;;;4.88;0.70;;;17.60;99.90;;;;;;5075524;28;20032;-51
2022/09/10 10:52:44;;;;;;;1.02;0.70;;;17.60;99.90;;;;;;5062189;28;20024;-50
2022/09/10 10:55:16;;;;;;;0.70;0.70;;;17.80;99.90;;;;;;5064192;28;20586;-54
2022/09/10 10:57:56;;;;;;;0.88;0.73;;;17.80;99.90;;;;;;5065095;28;20038;-53
2022/09/10 11:00:23;;;;;;;1.25;0.80;;;17.80;99.90;;;;;;5063337;28;20055;-54
2022/09/10 11:02:58;;;;;;;0.60;0.60;;;17.80;99.90;;;;;;5066538;28;20082;-51
2022/09/10 11:05:31;;;;;;;3.40;0.90;;;18.40;99.90;;;;;;5078724;28;22658;-53
2022/09/10 11:08:26;;;;;;;0.52;0.52;;;19.30;99.90;;;;;;5072982;28;20045;-50
2022/09/10 11:11:01;;;;;;;0.90;0.85;;;19.40;99.90;;;;;;5063985;28;20044;-54
2022/09/10 11:13:50;;;;;;;2.00;0.70;;;19.00;99.90;;;;;;5065970;28;20031;-49
2022/09/10 11:16:22;;;;;;;0.70;0.60;;;19.10;99.90;;;;;;5076608;28;20054;-50
2022/09/10 11:18:55;;;;;;;0.60;0.60;;;19.10;99.90;;;;;;5065715;28;20028;-51
2022/09/10 11:21:39;;;;;;;0.75;0.65;;;19.10;99.90;;;;;;5049826;28;20365;-50
2022/09/10 11:24:13;;;;;;;;;;;19.40;99.90;;;;;;5068042;28;20383;-51
2022/09/10 11:26:41;;;;;;;0.73;0.73;;;20.30;99.90;;;;;;5069540;28;20395;-49
2022/09/10 11:29:18;;;;;;;6.53;1.48;;;20.40;98.70;;;;;;5075219;28;20032;-50
2022/09/10 11:32:05;;;;;;;2.25;1.40;;;20.60;98.50;;;;;;5073532;28;20056;-52
2022/09/10 11:34:49;;;;;;;4.20;0.60;;;20.00;99.00;;;;;;5067729;28;20028;-52
2022/09/10 11:37:33;;;;;;;;;;;19.40;99.30;;;;;;5069778;28;20154;-52
2022/09/10 11:40:04;;;;;;;1.33;0.80;;;18.60;99.90;;;;;;5075625;28;19908;-53
2022/09/10 11:42:39;;;;;;;3.97;1.10;;;18.40;99.90;;;;;;5082794;28;20043;-54
2022/09/10 11:45:22;;;;;;;1.65;0.85;;;17.90;99.90;;;;;;5081388;28;20028;-52
2022/09/10 11:47:55;;;;;;;2.30;0.80;;;17.60;99.90;;;;;;5081728;28;20462;-49
2022/09/10 11:50:24;;;;;;;;;;;17.70;99.90;;;;;;5061736;28;20111;-52
2022/09/10 11:52:52;;;;;;;1.02;0.65;;;17.60;99.90;;;;;;5061669;28;19977;-51
2022/09/10 11:55:18;;;;;;;0.93;0.68;;;18.10;99.90;;;;;;5060448;28;22409;-55
2022/09/10 11:58:11;;;;;;;1.25;0.50;;;18.60;99.90;;;;;;5077956;28;20154;-50
2022/09/10 12:00:57;;;;;;;3.95;0.70;;;19.50;99.90;;;;;;5060151;28;20082;-50
2022/09/10 12:04:00;;;;;;;0.55;0.55;;;19.30;99.90;;;;;;5060787;28;20040;-49
2022/09/10 12:06:49;;;;;;;2.08;1.42;;;18.80;99.90;;;;;;5062340;28;20032;-49
2022/09/10 12:09:18;;;;;;;0.77;0.63;;;18.30;99.90;;;;;;5062712;28;20048;-50
2022/09/10 12:11:56;;;;;;;3.72;0.90;;;18.00;99.90;;;;;;5075800;28;20027;-50
2022/09/10 12:14:22;;;;;;;0.60;0.60;;;17.90;99.90;;;;;;5080732;28;20027;-52
2022/09/10 12:16:56;;;;;;;2.28;0.85;;;17.90;99.90;;;;;;5082329;28;20422;-51
2022/09/10 12:19:46;;;;;;;1.45;0.80;;;17.80;99.90;;;;;;5082039;28;20036;-53
2022/09/10 12:22:35;;;;;;;2.10;1.10;;;17.80;99.90;;;;;;5081004;28;20036;-49
2022/09/10 12:25:26;;;;;;;1.17;0.65;;;17.40;99.90;;;;;;5075677;28;20111;-50
2022/09/10 12:27:58;;;;;;;1.30;1.10;;;17.40;99.90;;;;;;5081289;28;20052;-52
2022/09/10 12:30:27;;;;;;;3.75;1.60;;;17.20;99.90;;;;;;5081285;28;20032;-50
2022/09/10 12:33:16;;;;;;;1.48;0.80;;;17.10;99.90;;;;;;5063917;28;20040;-49
2022/09/10 12:35:48;;;;;;;1.70;0.88;;;17.00;99.90;;;;;;5050704;28;20167;-50
2022/09/10 12:38:41;;;;;;;4.63;1.02;;;16.70;99.90;;;;;;5075411;28;20116;-50
2022/09/10 12:41:13;;;;;;;1.00;1.00;;;16.50;99.90;;;;;;5076117;28;20119;-50
2022/09/10 12:43:39;;;;;;;1.83;1.00;;;16.50;99.90;;;;;;5061364;28;20379;-49
2022/09/10 12:46:07;;;;;;;12.07;2.30;;;16.50;99.90;;;;;;5061341;28;20044;-51
2022/09/10 12:48:36;;;;;;;2.05;1.10;;;16.50;99.90;;;;;;5061646;28;20469;-49
2022/09/10 12:51:16;;;;;;;1.90;0.80;;;16.70;99.90;;;;;;5062077;28;20510;-50
2022/09/10 12:54:03;;;;;;;1.70;1.02;;;16.90;99.90;;;;;;5081659;28;20032;-53
2022/09/10 12:56:47;;;;;;;1.65;1.00;;;17.10;99.90;;;;;;5066547;28;20403;-53
2022/09/10 12:59:28;;;;;;;1.17;1.08;;;17.30;99.90;;;;;;5069473;28;20028;-50
2022/09/10 13:01:55;;;;;;;2.40;0.82;;;17.50;99.90;;;;;;5061167;28;20076;-53
2022/09/10 13:04:33;;;;;;;2.78;0.90;;;17.30;99.90;;;;;;5061867;28;20032;-51
2022/09/10 13:07:20;;;;;;;0.85;0.80;;;17.60;99.90;;;;;;5060684;28;20062;-50